Silsden, United Kingdom
Current Conditions -  °F | °C
As of 9:50 PM on Friday 31 Oct 2014 (Local Time) from EGNM Reporting Station
Clear Clear  
Wind Chill: 59°   Ceiling: Unl
Heat Index: 59°   Visibility: 6mi
Dew Point: 55°   Wind: 10mph
Humidity: 88%   Direction: 170°S
Pressure: 29.77"   Gusts: NA
Location:  53.91°N, 1.94°W
Report Text: EGNM 312150Z 17009KT 140V200 CAVOK 15/13 Q1008
Loading
Personal Weather Stations






























Interactive Weather Map
Tropical Storm Tracking
New forecast layout! Learn more

10-Day Weather Forecast

Advertisements
Track Severe Weather on mobile